Airfield :
LOGIN :

Register | Disclaimer

   EN    FR    IT 

 










Legend :    VFR   Marginal VFR   IFR   Intensive IFR   Very Intensive IFR
Visi :
Ceiling :
>= 8 km
>= 3000ft
5 to 8 km
1000 to 3000 ft
1500m to 5 km
500 to 1000 ft
800 to 1500m
200 to 500 ft
< 800m
< 200 ft
Symbols :   Thunderstorms  Fog  Heavy snow  Heavy precipitations  Wind > 20 kt
SIGMETs :     Misc.  Thunderstorms  Icing  Turbulence  Mountain Waves  Volcanic Ashes






- Airport Elevation : 598 ft
- IATA code : BQH


EGKB - Biggin Hill

CURRENT METAR :
  • 111550Z 15005KT CAVOK 30/16 Q1014

EXPIRED METARs :
  • 111520Z VRB02KT CAVOK 31/16 Q1014
  • 111450Z VRB04KT CAVOK 31/16 Q1015
  • 111420Z 07006KT 360V140 CAVOK 31/16 Q1015
  • 111350Z 06007KT 020V100 CAVOK 31/16 Q1015
  • 111320Z 09005KT 020V160 CAVOK 31/16 Q1015

TAF TAF EGKB
Valid from the 11 at 15:00 until the 11 at 22:00 UTC


111402Z 1115/1122 07007KT CAVOK
PROB30
TEMPO 1115/1117 4000 +SHRA TSRA



MET'MAP, your aeronautical weather chart ! - Copyright ORBIFLY December 2007 - Disclaimer

ORBIFLY MET'MAP TEAM :

Programming & Development : Alexandra Zaïnal
Concept & original design : Baudouin d'Aumeries
Assistance for programming : Marc-Olivier Méhu
Technical & hardware support : Manuel Goepfert

Contact : metmap@orbifly.com




SOURCES & CREDITS :

   NOAA